createdAt,value
2018-04-07T00:00:07.704Z,63.42
2018-04-07T00:01:07.722Z,63.51
2018-04-07T00:02:07.739Z,63.70
2018-04-07T00:03:07.757Z,63.79
2018-04-07T00:04:07.775Z,63.99
2018-04-07T00:05:07.797Z,64.18
2018-04-07T00:06:07.815Z,64.37
2018-04-07T00:07:07.829Z,64.46
2018-04-07T00:08:07.847Z,64.08
2018-04-07T00:09:07.863Z,64.37
2018-04-07T00:10:07.882Z,63.79
2018-04-07T00:11:07.901Z,63.89
2018-04-07T00:12:07.917Z,63.99
2018-04-07T00:13:07.936Z,63.99
2018-04-07T00:14:07.954Z,64.18
2018-04-07T00:15:07.971Z,64.27
2018-04-07T00:16:07.988Z,63.99
2018-04-07T00:17:08.007Z,64.08
2018-04-07T00:18:08.025Z,63.99
2018-04-07T00:19:08.043Z,64.46
2018-04-07T00:20:08.059Z,64.08
2018-04-07T00:21:08.078Z,63.79
2018-04-07T00:22:08.095Z,63.79
2018-04-07T00:23:08.112Z,64.08
2018-04-07T00:24:08.132Z,64.08
2018-04-07T00:25:08.150Z,63.89
2018-04-07T00:26:08.167Z,63.89
2018-04-07T00:27:08.184Z,63.79
2018-04-07T00:28:08.201Z,63.79
2018-04-07T00:29:08.222Z,63.51
2018-04-07T00:30:08.236Z,63.79
2018-04-07T00:31:08.255Z,63.89
2018-04-07T00:32:08.272Z,63.70
2018-04-07T00:33:08.289Z,63.79
2018-04-07T00:34:08.308Z,63.70
2018-04-07T00:35:08.324Z,63.70
2018-04-07T00:36:08.342Z,63.32
2018-04-07T00:37:08.361Z,63.32
2018-04-07T00:38:08.381Z,63.60
2018-04-07T00:39:08.396Z,63.51
2018-04-07T00:40:08.416Z,63.32
2018-04-07T00:41:08.431Z,63.32
2018-04-07T00:42:08.449Z,63.51
2018-04-07T00:43:08.718Z,63.89
2018-04-07T00:44:08.482Z,63.70
2018-04-07T00:45:08.500Z,63.89
2018-04-07T00:46:08.670Z,63.51
2018-04-07T00:47:08.537Z,63.51
2018-04-07T00:48:08.556Z,63.70
2018-04-07T00:49:08.571Z,63.79
2018-04-07T00:50:08.590Z,63.60
2018-04-07T00:51:08.607Z,63.99
2018-04-07T00:52:08.624Z,64.08
2018-04-07T00:53:08.643Z,64.37
2018-04-07T00:54:08.659Z,64.27
2018-04-07T00:55:08.676Z,64.27
2018-04-07T00:56:08.695Z,64.72
2018-04-07T00:57:08.712Z,64.53
2018-04-07T00:58:08.729Z,64.53
2018-04-07T00:59:08.747Z,65.19
2018-04-07T01:00:08.764Z,65.28
2018-04-07T01:01:08.781Z,65.00
2018-04-07T01:02:08.800Z,65.09
2018-04-07T01:03:08.822Z,65.19
2018-04-07T01:04:08.834Z,65.67
2018-04-07T01:05:08.853Z,65.67
2018-04-07T01:06:08.870Z,65.19
2018-04-07T01:07:08.888Z,65.09
2018-04-07T01:08:08.905Z,65.09
2018-04-07T01:09:08.922Z,64.75
2018-04-07T01:10:08.939Z,64.34
2018-04-07T01:11:08.957Z,64.37
2018-04-07T01:12:08.975Z,64.84
2018-04-07T01:13:08.995Z,64.90
2018-04-07T01:14:09.011Z,65.67
2018-04-07T01:15:09.029Z,65.38
2018-04-07T01:16:09.045Z,65.47
2018-04-07T01:17:09.062Z,65.19
2018-04-07T01:18:09.079Z,65.09
2018-04-07T01:19:09.097Z,65.19
2018-04-07T01:20:09.114Z,65.00
2018-04-07T01:21:09.136Z,64.90
2018-04-07T01:22:09.150Z,65.09
2018-04-07T01:23:09.171Z,65.38
2018-04-07T01:24:09.184Z,65.38
2018-04-07T01:25:09.201Z,64.90
2018-04-07T01:26:09.221Z,65.57
2018-04-07T01:27:09.237Z,65.86
2018-04-07T01:28:09.254Z,65.57
2018-04-07T01:29:09.271Z,65.57
2018-04-07T01:30:09.290Z,65.57
2018-04-07T01:31:09.310Z,65.67
2018-04-07T01:32:09.325Z,65.09
2018-04-07T01:33:09.341Z,65.00
2018-04-07T01:34:09.359Z,64.90
2018-04-07T01:35:09.376Z,65.67
2018-04-07T01:36:09.393Z,65.76
2018-04-07T01:37:09.411Z,66.33
2018-04-07T01:38:09.430Z,66.52
2018-04-07T01:39:09.451Z,66.71
2018-04-07T01:40:09.466Z,66.61
2018-04-07T01:41:09.481Z,66.61
2018-04-07T01:42:09.499Z,66.61
2018-04-07T01:43:09.516Z,66.71
2018-04-07T01:44:09.532Z,67.19
2018-04-07T01:45:09.550Z,67.28
2018-04-07T01:46:09.604Z,67.76
2018-04-07T01:47:09.585Z,67.38
2018-04-07T01:48:09.603Z,67.00
2018-04-07T01:49:09.622Z,67.38
2018-04-07T01:50:09.637Z,67.38
2018-04-07T01:51:09.655Z,67.76
2018-04-07T01:52:09.672Z,67.85
2018-04-07T01:53:09.688Z,67.76
2018-04-07T01:54:09.707Z,67.57
2018-04-07T01:55:09.728Z,67.57
2018-04-07T01:56:09.740Z,67.91
2018-04-07T01:57:09.759Z,67.53
2018-04-07T01:58:09.777Z,66.90
2018-04-07T01:59:09.794Z,67.28
2018-04-07T02:00:10.061Z,67.57
2018-04-07T02:01:09.828Z,67.19
2018-04-07T02:02:09.846Z,67.44
2018-04-07T02:03:09.864Z,67.72
2018-04-07T02:04:09.881Z,67.53
2018-04-07T02:05:09.898Z,67.28
2018-04-07T02:06:09.915Z,67.25
2018-04-07T02:07:09.935Z,67.34
2018-04-07T02:08:09.950Z,67.85
2018-04-07T02:09:09.967Z,67.82
2018-04-07T02:10:09.986Z,68.29
2018-04-07T02:11:10.002Z,68.19
2018-04-07T02:12:10.019Z,67.57
2018-04-07T02:13:10.037Z,68.19
2018-04-07T02:14:10.054Z,68.48
2018-04-07T02:15:10.072Z,68.29
2018-04-07T02:16:10.088Z,68.19
2018-04-07T02:17:10.107Z,68.39
2018-04-07T02:18:10.124Z,68.19
2018-04-07T02:19:10.144Z,68.86
2018-04-07T02:20:10.158Z,68.96
2018-04-07T02:21:10.175Z,68.77
2018-04-07T02:22:10.195Z,68.58
2018-04-07T02:23:10.210Z,68.29
2018-04-07T02:24:10.226Z,68.19
2018-04-07T02:25:10.245Z,67.82
2018-04-07T02:26:10.262Z,68.58
2018-04-07T02:27:10.280Z,68.39
2018-04-07T02:28:10.295Z,68.86
2018-04-07T02:29:10.314Z,68.67
2018-04-07T02:30:10.332Z,68.58
2018-04-07T02:31:10.350Z,68.48
2018-04-07T02:32:10.365Z,69.05
2018-04-07T02:33:10.383Z,68.86
2018-04-07T02:34:10.402Z,68.67
2018-04-07T02:35:10.419Z,68.58
2018-04-07T02:36:10.434Z,68.48
2018-04-07T02:37:10.452Z,69.34
2018-04-07T02:38:10.469Z,69.43
2018-04-07T02:39:10.488Z,69.05
2018-04-07T02:40:10.503Z,68.96
2018-04-07T02:41:10.524Z,68.29
2018-04-07T02:42:10.539Z,68.48
2018-04-07T02:43:10.566Z,68.48
2018-04-07T02:44:10.572Z,68.96
2018-04-07T02:45:10.592Z,68.86
2018-04-07T02:46:10.606Z,68.77
2018-04-07T02:47:10.624Z,68.86
2018-04-07T02:48:10.640Z,68.48
2018-04-07T02:49:10.658Z,68.48
2018-04-07T02:50:10.675Z,68.96
2018-04-07T02:51:10.693Z,68.86
2018-04-07T02:52:10.709Z,68.77
2018-04-07T02:53:10.727Z,69.24
2018-04-07T02:54:10.744Z,69.05
2018-04-07T02:55:10.761Z,69.05
2018-04-07T02:56:10.778Z,68.77
2018-04-07T02:57:10.795Z,69.34
2018-04-07T02:58:10.812Z,69.24
2018-04-07T02:59:10.839Z,69.05
2018-04-07T03:00:10.846Z,69.24
2018-04-07T03:01:10.864Z,69.15
2018-04-07T03:02:10.887Z,68.96
2018-04-07T03:03:10.905Z,68.96
2018-04-07T03:04:10.913Z,68.58
2018-04-07T03:05:10.935Z,68.58
2018-04-07T03:06:10.948Z,68.48
2018-04-07T03:07:11.266Z,68.58
2018-04-07T03:08:10.982Z,68.86
2018-04-07T03:09:10.999Z,68.58
2018-04-07T03:10:11.016Z,68.96
2018-04-07T03:11:11.033Z,69.24
2018-04-07T03:12:11.054Z,68.96
2018-04-07T03:13:11.066Z,69.15
2018-04-07T03:14:11.085Z,69.15
2018-04-07T03:15:11.101Z,69.43
2018-04-07T03:16:11.117Z,69.15
2018-04-07T03:17:11.135Z,68.96
2018-04-07T03:18:11.152Z,69.05
2018-04-07T03:19:11.169Z,69.62
2018-04-07T03:20:11.185Z,69.91
2018-04-07T03:21:11.205Z,69.53
2018-04-07T03:22:11.220Z,69.53
2018-04-07T03:23:11.237Z,69.53
2018-04-07T03:24:11.253Z,70.10
2018-04-07T03:25:11.270Z,70.10
2018-04-07T03:26:11.287Z,69.91
2018-04-07T03:27:11.305Z,70.29
2018-04-07T03:28:11.320Z,70.76
2018-04-07T03:29:11.337Z,71.33
2018-04-07T03:30:11.356Z,71.52
2018-04-07T03:31:11.377Z,71.62
2018-04-07T03:32:11.389Z,71.81
2018-04-07T03:33:11.406Z,71.71
2018-04-07T03:34:11.422Z,71.43
2018-04-07T03:35:11.441Z,71.81
2018-04-07T03:36:11.457Z,72.47
2018-04-07T03:37:11.473Z,73.04
2018-04-07T03:38:11.490Z,72.66
2018-04-07T03:39:11.507Z,72.28
2018-04-07T03:40:11.524Z,72.28
2018-04-07T03:41:11.541Z,71.90
2018-04-07T03:42:11.558Z,72.19
2018-04-07T03:43:11.575Z,72.19
2018-04-07T03:44:11.591Z,72.38
2018-04-07T03:45:11.608Z,72.09
2018-04-07T03:46:11.625Z,72.47
2018-04-07T03:47:11.643Z,72.09
2018-04-07T03:48:11.659Z,71.90
2018-04-07T03:49:11.678Z,71.43
2018-04-07T03:50:11.696Z,71.43
2018-04-07T03:51:11.708Z,71.90
2018-04-07T03:52:11.726Z,71.52
2018-04-07T03:53:11.744Z,72.00
2018-04-07T03:54:11.761Z,72.19
2018-04-07T03:55:11.778Z,72.19
2018-04-07T03:56:11.797Z,72.09
2018-04-07T03:57:11.812Z,72.09
2018-04-07T03:58:11.828Z,72.00
2018-04-07T03:59:11.846Z,72.19
2018-04-07T04:00:11.862Z,72.19
2018-04-07T04:01:11.879Z,72.19
2018-04-07T04:02:11.897Z,72.47
2018-04-07T04:03:11.913Z,73.23
2018-04-07T04:04:11.929Z,73.04
2018-04-07T04:05:11.945Z,72.75
2018-04-07T04:06:11.964Z,73.48
2018-04-07T04:07:11.980Z,73.48
2018-04-07T04:08:11.997Z,73.19
2018-04-07T04:09:12.013Z,73.38
2018-04-07T04:10:12.030Z,73.90
2018-04-07T04:11:12.048Z,73.86
2018-04-07T04:12:12.063Z,73.76
2018-04-07T04:13:12.081Z,74.62
2018-04-07T04:14:12.097Z,73.76
2018-04-07T04:15:12.114Z,73.96
2018-04-07T04:16:12.130Z,73.80
2018-04-07T04:17:12.148Z,73.33
2018-04-07T04:18:12.165Z,73.61
2018-04-07T04:19:12.182Z,72.56
2018-04-07T04:20:12.199Z,72.95
2018-04-07T04:21:12.215Z,73.48
2018-04-07T04:22:12.233Z,73.04
2018-04-07T04:23:12.254Z,73.42
2018-04-07T04:24:12.267Z,73.52
2018-04-07T04:25:12.283Z,73.42
2018-04-07T04:26:12.300Z,73.71
2018-04-07T04:27:12.317Z,73.90
2018-04-07T04:28:12.334Z,74.37
2018-04-07T04:29:12.351Z,74.85
2018-04-07T04:30:12.368Z,75.09
2018-04-07T04:31:12.384Z,75.13
2018-04-07T04:32:12.401Z,74.66
2018-04-07T04:33:12.419Z,74.85
2018-04-07T04:34:12.436Z,74.85
2018-04-07T04:35:12.452Z,74.47
2018-04-07T04:36:12.470Z,74.56
2018-04-07T04:37:12.485Z,74.75
2018-04-07T04:38:12.502Z,75.04
2018-04-07T04:39:12.520Z,74.66
2018-04-07T04:40:12.536Z,74.90
2018-04-07T04:41:12.555Z,74.90
2018-04-07T04:42:12.568Z,75.04
2018-04-07T04:43:12.586Z,75.19
2018-04-07T04:44:12.603Z,75.09
2018-04-07T04:45:12.620Z,75.38
2018-04-07T04:46:12.637Z,75.04
2018-04-07T04:47:12.654Z,74.90
2018-04-07T04:48:12.669Z,75.51
2018-04-07T04:49:12.686Z,75.13
2018-04-07T04:50:12.704Z,75.47
2018-04-07T04:51:12.720Z,75.09
2018-04-07T04:52:12.737Z,75.19
2018-04-07T04:53:12.753Z,75.13
2018-04-07T04:54:12.770Z,74.90
2018-04-07T04:55:12.790Z,75.57
2018-04-07T04:56:12.803Z,75.38
2018-04-07T04:57:12.820Z,75.85
2018-04-07T04:58:12.837Z,75.76
2018-04-07T04:59:12.854Z,75.47
2018-04-07T05:00:12.871Z,75.38
2018-04-07T05:01:12.887Z,75.32
2018-04-07T05:02:12.904Z,75.13
2018-04-07T05:03:12.921Z,75.28
2018-04-07T05:04:12.937Z,75.60
2018-04-07T05:05:12.954Z,75.51
2018-04-07T05:06:12.973Z,75.32
2018-04-07T05:07:12.987Z,75.38
2018-04-07T05:08:13.004Z,75.13
2018-04-07T05:09:13.021Z,75.51
2018-04-07T05:10:13.038Z,75.60
2018-04-07T05:11:13.055Z,75.60
2018-04-07T05:12:13.072Z,76.08
2018-04-07T05:13:13.090Z,76.08
2018-04-07T05:14:13.105Z,76.18
2018-04-07T05:15:13.123Z,76.56
2018-04-07T05:16:13.138Z,75.60
2018-04-07T05:17:13.159Z,76.37
2018-04-07T05:18:13.177Z,76.37
2018-04-07T05:19:13.189Z,75.13
2018-04-07T05:20:13.206Z,74.75
2018-04-07T05:21:13.222Z,75.13
2018-04-07T05:22:13.253Z,75.13
2018-04-07T05:23:13.258Z,75.23
2018-04-07T05:24:13.277Z,75.70
2018-04-07T05:25:13.292Z,76.18
2018-04-07T05:26:13.307Z,75.60
2018-04-07T05:27:13.325Z,75.51
2018-04-07T05:28:13.346Z,75.23
2018-04-07T05:29:13.357Z,75.70
2018-04-07T05:30:13.379Z,75.13
2018-04-07T05:31:13.391Z,74.94
2018-04-07T05:32:13.407Z,75.32
2018-04-07T05:33:13.425Z,74.85
2018-04-07T05:34:13.442Z,74.85
2018-04-07T05:35:13.460Z,74.47
2018-04-07T05:36:13.476Z,74.66
2018-04-07T05:37:13.494Z,74.66
2018-04-07T05:38:13.511Z,73.90
2018-04-07T05:39:13.529Z,75.23
2018-04-07T05:40:13.542Z,74.75
2018-04-07T05:41:13.561Z,74.66
2018-04-07T05:42:13.578Z,75.13
2018-04-07T05:43:13.597Z,75.04
2018-04-07T05:44:13.611Z,75.23
2018-04-07T05:45:13.629Z,74.75
2018-04-07T05:46:13.647Z,74.56
2018-04-07T05:47:13.662Z,74.75
2018-04-07T05:48:13.679Z,74.47
2018-04-07T05:49:13.697Z,74.41
2018-04-07T05:50:13.715Z,74.18
2018-04-07T05:51:13.732Z,74.94
2018-04-07T05:52:13.748Z,75.17
2018-04-07T05:53:13.767Z,75.17
2018-04-07T05:54:13.783Z,74.12
2018-04-07T05:55:13.803Z,73.74
2018-04-07T05:56:13.816Z,73.65
2018-04-07T05:57:13.835Z,73.46
2018-04-07T05:58:13.852Z,73.74
2018-04-07T05:59:13.870Z,73.55
2018-04-07T06:00:13.885Z,73.55
2018-04-07T06:01:13.906Z,73.36
2018-04-07T06:02:13.921Z,73.55
2018-04-07T06:03:13.938Z,73.55
2018-04-07T06:04:13.954Z,72.99
2018-04-07T06:05:13.973Z,73.08
2018-04-07T06:06:13.990Z,72.89
2018-04-07T06:07:14.007Z,73.65
2018-04-07T06:08:14.027Z,72.99
2018-04-07T06:09:14.042Z,73.27
2018-04-07T06:10:14.059Z,72.89
2018-04-07T06:11:14.077Z,72.70
2018-04-07T06:12:14.098Z,72.60
2018-04-07T06:13:14.111Z,72.32
2018-04-07T06:14:14.129Z,72.70
2018-04-07T06:15:14.146Z,72.51
2018-04-07T06:16:14.166Z,72.64
2018-04-07T06:17:14.180Z,72.07
2018-04-07T06:18:14.199Z,72.64
2018-04-07T06:19:14.216Z,72.07
2018-04-07T06:20:14.233Z,72.64
2018-04-07T06:21:14.251Z,72.07
2018-04-07T06:22:14.268Z,72.07
2018-04-07T06:23:14.286Z,72.26
2018-04-07T06:24:14.304Z,71.97
2018-04-07T06:25:14.330Z,72.26
2018-04-07T06:26:14.339Z,72.16
2018-04-07T06:27:14.357Z,72.07
2018-04-07T06:28:14.374Z,71.78
2018-04-07T06:29:14.392Z,71.88
2018-04-07T06:30:14.409Z,71.97
2018-04-07T06:31:14.428Z,72.07
2018-04-07T06:32:14.444Z,71.78
2018-04-07T06:33:14.463Z,71.78
2018-04-07T06:34:14.480Z,71.59
2018-04-07T06:35:14.499Z,71.22
2018-04-07T06:36:14.515Z,71.25
2018-04-07T06:37:14.533Z,71.06
2018-04-07T06:38:14.552Z,71.25
2018-04-07T06:39:14.569Z,71.82
2018-04-07T06:40:14.586Z,71.15
2018-04-07T06:41:14.604Z,71.34
2018-04-07T06:42:14.625Z,71.82
2018-04-07T06:43:14.641Z,70.97
2018-04-07T06:44:14.660Z,71.25
2018-04-07T06:45:14.677Z,71.44
2018-04-07T06:46:14.694Z,70.68
2018-04-07T06:47:14.712Z,70.77
2018-04-07T06:48:14.730Z,70.68
2018-04-07T06:49:14.748Z,70.01
2018-04-07T06:50:14.766Z,70.72
2018-04-07T06:51:14.784Z,70.52
2018-04-07T06:52:14.802Z,70.81
2018-04-07T06:53:14.820Z,70.90
2018-04-07T06:54:14.838Z,70.24
2018-04-07T06:55:14.857Z,69.85
2018-04-07T06:56:14.872Z,69.67
2018-04-07T06:57:14.892Z,69.76
2018-04-07T06:58:14.911Z,69.38
2018-04-07T06:59:14.929Z,69.29
2018-04-07T07:00:14.949Z,70.24
2018-04-07T07:01:14.965Z,69.51
2018-04-07T07:02:14.983Z,69.10
2018-04-07T07:03:15.004Z,69.60
2018-04-07T07:04:15.020Z,69.23
2018-04-07T07:05:15.038Z,69.51
2018-04-07T07:06:15.057Z,69.32
2018-04-07T07:07:15.075Z,70.08
2018-04-07T07:08:15.094Z,70.27
2018-04-07T07:09:15.118Z,70.47
2018-04-07T07:10:15.130Z,70.27
2018-04-07T07:11:15.149Z,70.18
2018-04-07T07:12:15.168Z,69.99
2018-04-07T07:13:15.186Z,69.99
2018-04-07T07:14:15.205Z,70.47
2018-04-07T07:15:15.231Z,70.18
2018-04-07T07:16:15.242Z,70.08
2018-04-07T07:17:15.261Z,70.65
2018-04-07T07:18:15.283Z,69.89
2018-04-07T07:19:15.298Z,69.93
2018-04-07T07:20:15.318Z,70.40
2018-04-07T07:21:15.338Z,70.31
2018-04-07T07:22:15.353Z,69.17
2018-04-07T07:23:15.372Z,68.21
2018-04-07T07:24:15.446Z,68.12
2018-04-07T07:25:15.446Z,67.83
2018-04-07T07:26:15.430Z,67.45
2018-04-07T07:27:15.448Z,67.16
2018-04-07T07:28:15.466Z,67.35
2018-04-07T07:29:15.485Z,67.16
2018-04-07T07:30:15.504Z,66.69
2018-04-07T07:31:15.524Z,66.97
2018-04-07T07:32:15.542Z,67.16
2018-04-07T07:33:15.561Z,66.78
2018-04-07T07:34:15.579Z,66.97
2018-04-07T07:35:15.600Z,66.69
2018-04-07T07:36:15.618Z,66.88
2018-04-07T07:37:15.635Z,66.24
2018-04-07T07:38:15.657Z,66.72
2018-04-07T07:39:15.678Z,66.91
2018-04-07T07:40:15.693Z,66.63
2018-04-07T07:41:15.713Z,65.58
2018-04-07T07:42:15.731Z,65.39
2018-04-07T07:43:15.753Z,65.39
2018-04-07T07:44:15.770Z,65.39
2018-04-07T07:45:15.789Z,65.96
2018-04-07T07:46:15.808Z,66.15
2018-04-07T07:47:15.828Z,65.39
2018-04-07T07:48:15.846Z,64.53
2018-04-07T07:49:15.865Z,65.00
2018-04-07T07:50:15.884Z,65.29
2018-04-07T07:51:15.904Z,64.34
2018-04-07T07:52:15.924Z,64.62
2018-04-07T07:53:15.943Z,64.81
2018-04-07T07:54:15.962Z,64.53
2018-04-07T07:55:16.183Z,63.96
2018-04-07T07:56:16.001Z,64.65
2018-04-07T07:57:16.020Z,64.09
2018-04-07T07:58:16.040Z,63.70
2018-04-07T07:59:16.060Z,63.51
2018-04-07T08:00:16.079Z,63.60
2018-04-07T08:01:16.098Z,63.99
2018-04-07T08:02:16.118Z,63.89
2018-04-07T08:03:16.137Z,63.80
2018-04-07T08:04:16.162Z,63.89
2018-04-07T08:05:16.177Z,64.09
2018-04-07T08:06:16.195Z,63.99
2018-04-07T08:07:16.217Z,63.80
2018-04-07T08:08:16.234Z,64.18
2018-04-07T08:09:16.254Z,64.37
2018-04-07T08:10:16.274Z,64.12
2018-04-07T08:11:16.294Z,63.80
2018-04-07T08:12:16.313Z,63.83
2018-04-07T08:13:16.332Z,63.54
2018-04-07T08:14:16.352Z,63.35
2018-04-07T08:15:16.372Z,62.68
2018-04-07T08:16:16.394Z,62.97
2018-04-07T08:17:16.416Z,62.68
2018-04-07T08:18:16.431Z,63.54
2018-04-07T08:19:16.451Z,63.16
2018-04-07T08:20:16.470Z,63.07
2018-04-07T08:21:16.489Z,62.62
2018-04-07T08:22:16.560Z,62.52
2018-04-07T08:23:16.531Z,62.68
2018-04-07T08:24:16.550Z,62.78
2018-04-07T08:25:16.570Z,62.91
2018-04-07T08:26:16.591Z,63.00
2018-04-07T08:27:16.611Z,62.71
2018-04-07T08:28:16.629Z,62.43
2018-04-07T08:29:16.650Z,62.34
2018-04-07T08:30:16.671Z,62.34
2018-04-07T08:31:16.691Z,61.76
2018-04-07T08:32:16.744Z,61.69
2018-04-07T08:33:16.730Z,61.69
2018-04-07T08:34:16.750Z,61.41
2018-04-07T08:35:16.772Z,62.27
2018-04-07T08:36:16.796Z,62.18
2018-04-07T08:37:16.811Z,61.69
2018-04-07T08:38:16.832Z,61.79
2018-04-07T08:39:16.865Z,61.79
2018-04-07T08:40:16.873Z,62.08
2018-04-07T08:41:16.894Z,61.63
2018-04-07T08:42:16.914Z,61.06
2018-04-07T08:43:16.935Z,60.10
2018-04-07T08:44:16.957Z,61.13
2018-04-07T08:45:17.036Z,61.44
2018-04-07T08:46:16.996Z,61.72
2018-04-07T08:47:17.016Z,61.16
2018-04-07T08:48:17.040Z,60.13
2018-04-07T08:49:17.057Z,58.80
2018-04-07T08:50:17.082Z,58.89
2018-04-07T08:51:17.099Z,58.03
2018-04-07T08:52:17.120Z,58.41
2018-04-07T08:53:17.141Z,58.32
2018-04-07T08:54:17.162Z,58.98
2018-04-07T08:55:17.183Z,59.27
2018-04-07T08:56:17.205Z,59.01
2018-04-07T08:57:17.264Z,58.15
2018-04-07T08:58:17.254Z,58.25
2018-04-07T08:59:17.268Z,57.68
2018-04-07T09:00:17.288Z,57.77
2018-04-07T09:01:17.310Z,58.03
2018-04-07T09:02:17.332Z,58.54
2018-04-07T09:03:17.353Z,58.06
2018-04-07T09:04:17.374Z,56.15
2018-04-07T09:05:17.396Z,55.12
2018-04-07T09:06:17.417Z,55.22
2018-04-07T09:07:17.440Z,55.31
2018-04-07T09:08:17.460Z,55.31
2018-04-07T09:09:17.482Z,55.15
2018-04-07T09:10:17.505Z,55.31
2018-04-07T09:11:17.527Z,54.67
2018-04-07T09:12:17.550Z,53.71
2018-04-07T09:13:17.570Z,53.14
2018-04-07T09:14:17.591Z,51.51
2018-04-07T09:15:17.614Z,50.65
2018-04-07T09:16:17.635Z,50.38
2018-04-07T09:17:17.659Z,50.46
2018-04-07T09:18:17.680Z,50.07
2018-04-07T09:19:17.703Z,50.00
2018-04-07T09:20:17.724Z,49.71
2018-04-07T09:21:17.746Z,49.24
2018-04-07T09:22:17.768Z,49.05
2018-04-07T09:23:17.791Z,48.75
2018-04-07T09:24:17.812Z,48.85
2018-04-07T09:25:17.842Z,48.75
2018-04-07T09:26:17.858Z,48.57
2018-04-07T09:27:17.880Z,48.95
2018-04-07T09:28:17.903Z,48.78
2018-04-07T09:29:17.925Z,48.69
2018-04-07T09:30:17.948Z,46.96
2018-04-07T09:31:17.971Z,46.39
2018-04-07T09:32:17.994Z,46.67
2018-04-07T09:33:18.016Z,46.19
2018-04-07T09:34:18.039Z,45.62
2018-04-07T09:35:18.064Z,45.14
2018-04-07T09:36:18.084Z,45.04
2018-04-07T09:37:18.107Z,44.87
2018-04-07T09:38:18.130Z,45.36
2018-04-07T09:39:18.153Z,44.87
2018-04-07T09:40:18.175Z,44.59
2018-04-07T09:41:18.199Z,44.23
2018-04-07T09:42:18.222Z,44.70
2018-04-07T09:43:18.247Z,44.32
2018-04-07T09:44:18.268Z,44.90
2018-04-07T09:45:18.295Z,45.07
2018-04-07T09:46:18.314Z,45.26
2018-04-07T09:47:18.338Z,45.36
2018-04-07T09:48:18.361Z,44.80
2018-04-07T09:49:18.388Z,44.23
2018-04-07T09:50:18.408Z,44.51
2018-04-07T09:51:18.431Z,44.03
2018-04-07T09:52:18.454Z,43.65
2018-04-07T09:53:18.478Z,43.74
2018-04-07T09:54:18.501Z,42.88
2018-04-07T09:55:18.524Z,43.00
2018-04-07T09:56:18.546Z,42.11
2018-04-07T09:57:18.572Z,42.21
2018-04-07T09:58:18.595Z,41.73
2018-04-07T09:59:18.619Z,41.73
2018-04-07T10:00:18.641Z,42.13
2018-04-07T10:01:18.668Z,41.75
2018-04-07T10:02:18.695Z,41.94
2018-04-07T10:03:18.713Z,41.94
2018-04-07T10:04:18.736Z,42.52
2018-04-07T10:05:18.779Z,42.04
2018-04-07T10:06:18.784Z,41.85
2018-04-07T10:07:18.808Z,41.17
2018-04-07T10:08:18.831Z,40.89
2018-04-07T10:09:18.855Z,40.89
2018-04-07T10:10:18.878Z,41.66
2018-04-07T10:11:18.902Z,41.66
2018-04-07T10:12:18.926Z,41.77
2018-04-07T10:13:18.950Z,41.85
2018-04-07T10:14:18.974Z,41.96
2018-04-07T10:15:18.998Z,42.06
2018-04-07T10:16:19.021Z,41.67
2018-04-07T10:17:19.396Z,41.96
2018-04-07T10:18:19.072Z,41.50
2018-04-07T10:19:19.097Z,40.93
2018-04-07T10:20:19.118Z,40.81
2018-04-07T10:21:19.141Z,40.73
2018-04-07T10:22:19.168Z,40.72
2018-04-07T10:23:19.190Z,41.39
2018-04-07T10:24:19.213Z,41.96
2018-04-07T10:25:19.240Z,41.79
2018-04-07T10:26:19.263Z,40.93
2018-04-07T10:27:19.287Z,41.50
2018-04-07T10:28:19.310Z,41.60
2018-04-07T10:29:19.335Z,41.89
2018-04-07T10:30:19.361Z,41.41
2018-04-07T10:31:19.384Z,41.31
2018-04-07T10:32:19.408Z,41.99
2018-04-07T10:33:19.435Z,41.89
2018-04-07T10:34:19.456Z,41.31
2018-04-07T10:35:19.482Z,40.83
2018-04-07T10:36:19.557Z,41.50
2018-04-07T10:37:19.531Z,41.02
2018-04-07T10:38:19.656Z,40.76
2018-04-07T10:39:19.585Z,41.12
2018-04-07T10:40:19.604Z,40.66
2018-04-07T10:41:19.629Z,41.43
2018-04-07T10:42:19.657Z,40.95
2018-04-07T10:43:19.678Z,40.85
2018-04-07T10:44:19.703Z,40.56
2018-04-07T10:45:19.726Z,40.85
2018-04-07T10:46:19.753Z,40.85
2018-04-07T10:47:19.780Z,40.85
2018-04-07T10:48:19.802Z,40.66
2018-04-07T10:49:19.826Z,40.88
2018-04-07T10:50:19.852Z,40.78
2018-04-07T10:51:19.876Z,40.68
2018-04-07T10:52:19.901Z,40.49
2018-04-07T10:53:19.926Z,40.28
2018-04-07T10:54:19.951Z,40.39
2018-04-07T10:55:19.976Z,40.30
2018-04-07T10:56:20.000Z,39.62
2018-04-07T10:57:20.025Z,40.20
2018-04-07T10:58:20.050Z,40.20
2018-04-07T10:59:20.076Z,39.72
2018-04-07T11:00:20.100Z,40.11
2018-04-07T11:01:20.126Z,40.20
2018-04-07T11:02:20.150Z,40.11
2018-04-07T11:03:20.178Z,40.49
2018-04-07T11:04:20.199Z,40.39
2018-04-07T11:05:20.225Z,40.20
2018-04-07T11:06:20.251Z,39.91
2018-04-07T11:07:20.275Z,40.58
2018-04-07T11:08:20.300Z,40.01
2018-04-07T11:09:20.324Z,40.12
2018-04-07T11:10:20.350Z,40.12
2018-04-07T11:11:20.378Z,39.06
2018-04-07T11:12:20.403Z,38.49
2018-04-07T11:13:20.428Z,38.97
2018-04-07T11:14:20.451Z,38.12
2018-04-07T11:15:20.476Z,37.52
2018-04-07T11:16:20.502Z,37.81
2018-04-07T11:17:21.278Z,37.72
2018-04-07T11:18:20.703Z,37.81
2018-04-07T11:19:20.578Z,37.83
2018-04-07T11:20:20.603Z,38.31
2018-04-07T11:21:20.627Z,38.70
2018-04-07T11:22:20.654Z,38.02
2018-04-07T11:23:20.679Z,37.64
2018-04-07T11:24:20.706Z,37.76
2018-04-07T11:25:20.730Z,37.66
2018-04-07T11:26:20.756Z,37.83
2018-04-07T11:27:20.782Z,36.89
2018-04-07T11:28:20.806Z,36.31
2018-04-07T11:29:20.833Z,36.60
2018-04-07T11:30:20.859Z,36.68
2018-04-07T11:31:20.885Z,36.97
2018-04-07T11:32:20.909Z,37.08
2018-04-07T11:33:20.936Z,37.85
2018-04-07T11:34:20.962Z,36.89
2018-04-07T11:35:20.993Z,36.99
2018-04-07T11:36:21.012Z,36.68
2018-04-07T11:37:21.039Z,36.79
2018-04-07T11:38:21.065Z,37.46
2018-04-07T11:39:21.092Z,37.27
2018-04-07T11:40:21.116Z,37.66
2018-04-07T11:41:21.142Z,37.66
2018-04-07T11:42:21.171Z,37.85
2018-04-07T11:43:21.196Z,37.08
2018-04-07T11:44:21.222Z,37.18
2018-04-07T11:45:21.247Z,37.56
2018-04-07T11:46:21.273Z,37.66
2018-04-07T11:47:21.300Z,37.76
2018-04-07T11:48:21.325Z,36.99
2018-04-07T11:49:21.351Z,37.18
2018-04-07T11:50:21.378Z,36.99
2018-04-07T11:51:21.403Z,36.79
2018-04-07T11:52:21.430Z,36.13
2018-04-07T11:53:21.459Z,36.33
2018-04-07T11:54:21.483Z,36.33
2018-04-07T11:55:21.511Z,35.94
2018-04-07T11:56:21.534Z,35.65
2018-04-07T11:57:21.561Z,35.85
2018-04-07T11:58:21.587Z,35.65
2018-04-07T11:59:21.613Z,35.17
2018-04-07T12:00:21.640Z,35.85
2018-04-07T12:01:21.665Z,36.43
2018-04-07T12:02:21.739Z,35.56
2018-04-07T12:03:21.718Z,35.65
2018-04-07T12:04:21.744Z,35.36
2018-04-07T12:05:21.773Z,35.75
2018-04-07T12:06:21.798Z,35.85
2018-04-07T12:07:21.824Z,35.75
2018-04-07T12:08:21.849Z,35.85
2018-04-07T12:09:21.878Z,35.75
2018-04-07T12:10:21.916Z,35.27
2018-04-07T12:11:21.928Z,35.17
2018-04-07T12:12:21.954Z,35.17
2018-04-07T12:13:21.981Z,35.27
2018-04-07T12:14:22.007Z,35.94
2018-04-07T12:15:22.034Z,36.33
2018-04-07T12:16:22.059Z,36.35
2018-04-07T12:17:22.085Z,36.44
2018-04-07T12:18:22.113Z,36.63
2018-04-07T12:19:22.139Z,36.35
2018-04-07T12:20:22.165Z,36.35
2018-04-07T12:21:22.192Z,36.54
2018-04-07T12:22:22.217Z,36.44
2018-04-07T12:23:22.245Z,36.06
2018-04-07T12:24:22.270Z,36.25
2018-04-07T12:25:22.297Z,36.06
2018-04-07T12:26:22.328Z,35.48
2018-04-07T12:27:22.350Z,35.21
2018-04-07T12:28:22.377Z,35.11
2018-04-07T12:29:22.405Z,34.72
2018-04-07T12:30:22.430Z,34.53
2018-04-07T12:31:22.456Z,34.14
2018-04-07T12:32:22.481Z,34.34
2018-04-07T12:33:22.510Z,34.14
2018-04-07T12:34:22.537Z,33.76
2018-04-07T12:35:22.564Z,33.28
2018-04-07T12:36:22.593Z,32.89
2018-04-07T12:37:22.617Z,32.62
2018-04-07T12:38:22.648Z,32.62
2018-04-07T12:39:22.671Z,32.81
2018-04-07T12:40:22.697Z,32.14
2018-04-07T12:41:22.724Z,30.79
2018-04-07T12:42:22.750Z,29.82
2018-04-07T12:43:22.778Z,29.34
2018-04-07T12:44:22.809Z,29.34
2018-04-07T12:45:22.831Z,29.14
2018-04-07T12:46:22.858Z,29.24
2018-04-07T12:47:22.885Z,29.64
2018-04-07T12:48:22.913Z,29.64
2018-04-07T12:49:22.939Z,29.64
2018-04-07T12:50:22.966Z,30.03
2018-04-07T12:51:22.992Z,31.09
2018-04-07T12:52:23.023Z,30.80